IMG801 TFFG-TFFJ
Flight info
| Callsign | IMG801 |
|---|---|
| Flight time | N/A |
| Altitude | 6000 |
| Route | PJM/N0241F050 |
| Aircraft | PC12/L-SDFGRWY/S |
Departure
| Time | 2026-04-18 22:24 |
|---|---|
| Airport | Grand Case-l'Espérance Airport (TFFG) |
Arrival
| Time | N/A |
|---|---|
| Airport | St. Jean Airport (TFFJ) |
| Time | Latitude | Longitude | Altitude | Speed | Heading |
|---|---|---|---|---|---|
| 2026-04-18 22:06 | 18.10154 | -63.04665 | 11 ft | 0 kts | 257° |
| 2026-04-18 22:21 | 18.10148 | -63.04685 | 11 ft | 6 kts | 223° |
| 2026-04-18 22:21 | 18.10091 | -63.04724 | 11 ft | 11 kts | 234° |
| 2026-04-18 22:21 | 18.10019 | -63.04753 | 11 ft | 16 kts | 150° |
| 2026-04-18 22:22 | 18.09968 | -63.04613 | 14 ft | 25 kts | 104° |
| 2026-04-18 22:22 | 18.09912 | -63.04429 | 21 ft | 29 kts | 108° |
| 2026-04-18 22:22 | 18.09873 | -63.04291 | 25 ft | 19 kts | 106° |
| 2026-04-18 22:22 | 18.09847 | -63.04177 | 27 ft | 5 kts | 86° |
| 2026-04-18 22:23 | 18.09853 | -63.04227 | 28 ft | 28 kts | 289° |
| 2026-04-18 22:23 | 18.09986 | -63.04680 | 15 ft | 99 kts | 287° |
| 2026-04-18 22:23 | 18.10223 | -63.05503 | 207 ft | 132 kts | 287° |
| 2026-04-18 22:23 | 18.10490 | -63.06515 | 593 ft | 155 kts | 279° |
| 2026-04-18 22:24 | 18.10043 | -63.07591 | 872 ft | 181 kts | 211° |
| 2026-04-18 22:24 | 18.08810 | -63.07927 | 1316 ft | 192 kts | 183° |
| 2026-04-18 22:24 | 18.07466 | -63.08288 | 1797 ft | 206 kts | 195° |
| 2026-04-18 22:24 | 18.06108 | -63.08824 | 2317 ft | 208 kts | 189° |
| 2026-04-18 22:25 | 18.04673 | -63.08949 | 2839 ft | 206 kts | 171° |
| 2026-04-18 22:25 | 18.03300 | -63.08601 | 3355 ft | 202 kts | 152° |
| 2026-04-18 22:25 | 18.02128 | -63.07822 | 3862 ft | 199 kts | 135° |
| 2026-04-18 22:25 | 18.01268 | -63.06707 | 4369 ft | 200 kts | 118° |
| 2026-04-18 22:26 | 18.00657 | -63.05387 | 4853 ft | 204 kts | 114° |
| 2026-04-18 22:26 | 18.00008 | -63.04002 | 4996 ft | 220 kts | 115° |
| 2026-04-18 22:26 | 17.99291 | -63.02539 | 5006 ft | 229 kts | 115° |
| 2026-04-18 22:26 | 17.98553 | -63.01038 | 5005 ft | 232 kts | 116° |
| 2026-04-18 22:27 | 17.97814 | -62.99523 | 5004 ft | 233 kts | 115° |
| 2026-04-18 22:27 | 17.97075 | -62.98006 | 5005 ft | 233 kts | 115° |
| 2026-04-18 22:27 | 17.96335 | -62.96489 | 5003 ft | 233 kts | 115° |
| 2026-04-18 22:27 | 17.95594 | -62.94973 | 5003 ft | 233 kts | 115° |
| 2026-04-18 22:28 | 17.94853 | -62.93454 | 5003 ft | 233 kts | 115° |
| 2026-04-18 22:28 | 17.94110 | -62.91935 | 5003 ft | 234 kts | 115° |
| 2026-04-18 22:28 | 17.93369 | -62.90414 | 4931 ft | 229 kts | 116° |
| 2026-04-18 22:28 | 17.92703 | -62.89056 | 4572 ft | 200 kts | 115° |
| 2026-04-18 22:29 | 17.91841 | -62.87962 | 4181 ft | 200 kts | 147° |
| 2026-04-18 22:29 | 17.90454 | -62.87705 | 3632 ft | 210 kts | 179° |
| 2026-04-18 22:29 | 17.89024 | -62.87867 | 3083 ft | 209 kts | 182° |
| 2026-04-18 22:29 | 17.87592 | -62.88031 | 2721 ft | 198 kts | 172° |
| 2026-04-18 22:30 | 17.86596 | -62.87309 | 2581 ft | 177 kts | 106° |
| 2026-04-18 22:30 | 17.86837 | -62.86145 | 2359 ft | 161 kts | 49° |
| 2026-04-18 22:30 | 17.87910 | -62.85879 | 1831 ft | 179 kts | 343° |
| 2026-04-18 22:30 | 17.88925 | -62.86483 | 1502 ft | 141 kts | 338° |
| 2026-04-18 22:31 | 17.89724 | -62.86705 | 1069 ft | 103 kts | 13° |
| 2026-04-18 22:31 | 17.90272 | -62.86359 | 734 ft | 101 kts | 70° |
| 2026-04-18 22:31 | 17.90387 | -62.85636 | 429 ft | 90 kts | 83° |
| 2026-04-18 22:31 | 17.90407 | -62.85012 | 218 ft | 87 kts | 79° |
| 2026-04-18 22:32 | 17.90438 | -62.84379 | 29 ft | 80 kts | 78° |